LAA weather

Lamar Municipal Airport
Lamar, Colorado, United States

Public forecast

Using degrees Fahrenheit for public forecast. Weather courtesy of forecast.io.

Current aviation weather report (METAR) for Lamar Municipal Airport

Retrieved 2019/10/22 16:53 UTC (1 hour ago):

KLAA 221653Z AUTO 19007KT 10SM CLR 14/M06 A3019 RMK AO2 SLP215 T01441056

Closest aviation forecast (TAF) to Lamar Municipal Airport

Closest forecast is Pueblo Memorial Airport, 86.4 nm (160.0 km) W. Retrieved 2019/10/22 12:42 UTC (5 hours ago):

TAF KPUB 221140Z 2212/2312 24006KT P6SM SKC FM221900 16008KT P6SM FEW120 SCT200 FM230200 26008KT P6SM FEW200